createdAt,value
2023-05-24T00:00:33.434Z,7.88
2023-05-24T00:03:00.644Z,7.05
2023-05-24T00:05:31.229Z,7.00
2023-05-24T00:07:59.470Z,7.78
2023-05-24T00:10:26.697Z,7.85
2023-05-24T00:12:53.752Z,7.47
2023-05-24T00:15:20.989Z,7.68
2023-05-24T00:17:48.259Z,7.63
2023-05-24T00:20:15.585Z,7.78
2023-05-24T00:22:42.707Z,7.10
2023-05-24T00:25:10.147Z,7.07
2023-05-24T00:27:37.586Z,8.15
2023-05-24T00:30:06.836Z,7.65
2023-05-24T00:32:34.272Z,7.85
2023-05-24T00:35:01.357Z,7.97
2023-05-24T00:37:29.577Z,7.68
2023-05-24T00:39:56.899Z,7.95
2023-05-24T00:42:24.294Z,7.50
2023-05-24T00:44:51.459Z,8.07
2023-05-24T00:47:19.463Z,7.90
2023-05-24T00:49:46.991Z,8.05
2023-05-24T00:52:14.447Z,7.57
2023-05-24T00:54:41.780Z,7.00
2023-05-24T00:57:09.034Z,7.45
2023-05-24T00:59:36.728Z,7.68
2023-05-24T01:02:05.419Z,7.40
2023-05-24T01:04:33.266Z,7.82
2023-05-24T01:07:26.873Z,7.88
2023-05-24T01:10:04.110Z,7.68
2023-05-24T01:12:53.684Z,7.43
2023-05-24T01:15:43.751Z,8.07
2023-05-24T01:18:26.406Z,8.15
2023-05-24T01:21:48.327Z,8.00
2023-05-24T01:25:03.815Z,7.93
2023-05-24T01:27:34.420Z,7.38
2023-05-24T01:30:04.344Z,7.93
2023-05-24T01:32:32.009Z,8.25
2023-05-24T01:34:59.172Z,8.30
2023-05-24T01:37:26.364Z,8.40
2023-05-24T01:39:53.815Z,8.00
2023-05-24T01:42:45.056Z,8.73
2023-05-24T01:45:38.647Z,8.23
2023-05-24T01:48:38.327Z,8.15
2023-05-24T01:51:11.685Z,8.80
2023-05-24T01:53:47.671Z,8.57
2023-05-24T01:56:17.581Z,8.18
2023-05-24T01:58:46.900Z,8.73
2023-05-24T02:01:14.925Z,8.00
2023-05-24T02:03:42.270Z,8.20
2023-05-24T02:06:10.721Z,8.70
2023-05-24T02:08:40.228Z,7.95
2023-05-24T02:11:07.351Z,8.35
2023-05-24T02:13:34.370Z,8.20
2023-05-24T02:16:01.826Z,8.00
2023-05-24T02:18:34.634Z,8.15
2023-05-24T02:21:02.815Z,8.35
2023-05-24T02:23:30.077Z,7.72
2023-05-24T02:25:59.188Z,8.73
2023-05-24T02:28:26.281Z,8.43
2023-05-24T02:30:53.517Z,7.95
2023-05-24T02:33:21.163Z,8.25
2023-05-24T02:35:48.431Z,8.50
2023-05-24T02:38:15.489Z,8.82
2023-05-24T02:40:42.933Z,8.35
2023-05-24T02:43:10.298Z,9.35
2023-05-24T02:45:37.734Z,7.95
2023-05-24T02:48:05.156Z,8.40
2023-05-24T02:50:32.282Z,8.35
2023-05-24T02:52:59.328Z,7.68
2023-05-24T02:55:26.887Z,7.72
2023-05-24T02:57:54.245Z,7.80
2023-05-24T03:00:21.758Z,8.00
2023-05-24T03:02:51.185Z,8.20
2023-05-24T03:05:18.950Z,8.60
2023-05-24T03:07:46.051Z,7.75
2023-05-24T03:10:15.145Z,7.82
2023-05-24T03:12:43.109Z,7.80
2023-05-24T03:15:11.527Z,8.05
2023-05-24T03:17:38.663Z,7.70
2023-05-24T03:20:07.083Z,7.07
2023-05-24T03:22:34.233Z,7.57
2023-05-24T03:25:03.345Z,8.00
2023-05-24T03:27:30.650Z,7.68
2023-05-24T03:29:57.813Z,7.68
2023-05-24T03:32:27.921Z,7.90
2023-05-24T03:34:56.778Z,7.80
2023-05-24T03:37:24.004Z,7.25
2023-05-24T03:39:53.373Z,7.47
2023-05-24T03:42:46.398Z,7.85
2023-05-24T03:45:17.515Z,8.20
2023-05-24T03:47:46.662Z,8.00
2023-05-24T03:50:14.385Z,7.38
2023-05-24T03:52:42.890Z,7.88
2023-05-24T03:55:09.998Z,7.32
2023-05-24T03:57:37.132Z,8.32
2023-05-24T04:00:07.163Z,7.70
2023-05-24T04:02:41.425Z,7.55
2023-05-24T04:05:10.228Z,6.75
2023-05-24T04:07:39.812Z,7.40
2023-05-24T04:10:08.110Z,7.30
2023-05-24T04:12:35.694Z,7.22
2023-05-24T04:15:02.890Z,7.80
2023-05-24T04:17:32.824Z,7.07
2023-05-24T04:20:00.371Z,7.30
2023-05-24T04:22:27.589Z,7.57
2023-05-24T04:24:54.691Z,6.82
2023-05-24T04:27:22.178Z,6.70
2023-05-24T04:29:50.235Z,7.10
2023-05-24T04:32:17.941Z,6.95
2023-05-24T04:34:46.444Z,7.20
2023-05-24T04:37:17.404Z,7.25
2023-05-24T04:39:46.698Z,6.80
2023-05-24T04:42:14.504Z,7.18
2023-05-24T04:44:41.643Z,6.82
2023-05-24T04:47:08.997Z,7.43
2023-05-24T04:49:36.186Z,7.03
2023-05-24T04:52:03.295Z,6.93
2023-05-24T04:54:30.396Z,6.95
2023-05-24T04:56:57.548Z,6.90
2023-05-24T04:59:25.203Z,6.47
2023-05-24T05:01:52.362Z,6.88
2023-05-24T05:04:19.590Z,6.40
2023-05-24T05:06:48.221Z,6.03
2023-05-24T05:09:15.952Z,6.40
2023-05-24T05:11:43.453Z,6.30
2023-05-24T05:14:11.653Z,6.95
2023-05-24T05:16:39.479Z,6.80
2023-05-24T05:19:06.732Z,6.93
2023-05-24T05:21:34.529Z,6.03
2023-05-24T05:24:02.255Z,6.75
2023-05-24T05:26:29.997Z,6.07
2023-05-24T05:28:58.042Z,6.20
2023-05-24T05:31:25.701Z,6.60
2023-05-24T05:33:52.963Z,5.93
2023-05-24T05:36:20.198Z,5.97
2023-05-24T05:38:47.245Z,5.88
2023-05-24T05:41:14.363Z,5.43
2023-05-24T05:43:41.455Z,6.18
2023-05-24T05:46:08.604Z,6.35
2023-05-24T05:48:35.694Z,5.82
2023-05-24T05:51:02.811Z,5.63
2023-05-24T05:53:29.990Z,6.03
2023-05-24T05:55:57.130Z,6.13
2023-05-24T05:58:24.266Z,6.95
2023-05-24T06:00:51.704Z,5.90
2023-05-24T06:03:19.190Z,5.80
2023-05-24T06:05:46.453Z,6.45
2023-05-24T06:08:13.484Z,6.03
2023-05-24T06:10:40.712Z,6.30
2023-05-24T06:13:07.957Z,5.60
2023-05-24T06:15:34.952Z,5.95
2023-05-24T06:18:02.436Z,5.25
2023-05-24T06:20:29.734Z,5.22
2023-05-24T06:22:57.397Z,5.53
2023-05-24T06:25:24.622Z,6.00
2023-05-24T06:27:51.910Z,5.38
2023-05-24T06:30:19.316Z,5.63
2023-05-24T06:32:46.479Z,5.75
2023-05-24T06:35:14.218Z,5.40
2023-05-24T06:37:41.402Z,5.47
2023-05-24T06:40:11.549Z,6.30
2023-05-24T06:42:39.736Z,5.70
2023-05-24T06:45:08.514Z,5.05
2023-05-24T06:47:36.326Z,5.30
2023-05-24T06:50:05.513Z,5.72
2023-05-24T06:53:06.099Z,5.78
2023-05-24T06:55:34.065Z,5.13
2023-05-24T06:58:01.633Z,5.53
2023-05-24T07:00:28.728Z,5.30
2023-05-24T07:02:56.576Z,5.45
2023-05-24T07:05:24.068Z,5.28
2023-05-24T07:07:56.797Z,5.40
2023-05-24T07:10:24.135Z,5.18
2023-05-24T07:13:04.046Z,5.00
2023-05-24T07:15:41.954Z,4.50
2023-05-24T07:18:09.584Z,5.22
2023-05-24T07:20:37.093Z,4.78
2023-05-24T07:23:04.679Z,5.20
2023-05-24T07:25:45.025Z,4.40
2023-05-24T07:28:14.257Z,4.47
2023-05-24T07:30:41.894Z,4.22
2023-05-24T07:33:22.066Z,3.95
2023-05-24T07:35:51.768Z,3.97
2023-05-24T07:38:29.375Z,3.85
2023-05-24T07:41:07.672Z,3.92
2023-05-24T07:43:41.479Z,4.05
2023-05-24T07:46:10.687Z,3.83
2023-05-24T07:48:38.678Z,3.67
2023-05-24T07:51:07.727Z,3.83
2023-05-24T07:53:37.870Z,3.90
2023-05-24T07:56:22.614Z,3.58
2023-05-24T07:58:52.313Z,3.22
2023-05-24T08:01:39.893Z,3.53
2023-05-24T08:04:12.588Z,3.47
2023-05-24T08:06:41.797Z,3.47
2023-05-24T08:09:09.393Z,3.65
2023-05-24T08:11:36.905Z,3.97
2023-05-24T08:14:04.378Z,4.13
2023-05-24T08:16:32.633Z,3.70
2023-05-24T08:19:02.586Z,3.60
2023-05-24T08:21:31.465Z,3.88
2023-05-24T08:24:10.792Z,4.00
2023-05-24T08:26:38.718Z,3.92
2023-05-24T08:29:06.961Z,3.90
2023-05-24T08:31:42.713Z,3.95
2023-05-24T08:34:15.700Z,3.70
2023-05-24T08:36:44.007Z,4.20
2023-05-24T08:39:20.376Z,3.75
2023-05-24T08:42:00.931Z,4.18
2023-05-24T08:44:58.229Z,4.10
2023-05-24T08:47:27.066Z,4.35
2023-05-24T08:49:56.098Z,3.85
2023-05-24T08:52:24.105Z,4.00
2023-05-24T08:54:53.186Z,4.38
2023-05-24T08:57:22.256Z,3.70
2023-05-24T08:59:49.991Z,3.83
2023-05-24T09:02:18.161Z,3.60
2023-05-24T09:04:49.042Z,4.07
2023-05-24T09:07:23.529Z,9.07
2023-05-24T09:10:08.567Z,4.25
2023-05-24T09:12:39.231Z,4.22
2023-05-24T09:15:08.913Z,6.72
2023-05-24T09:17:37.884Z,5.97
2023-05-24T09:20:11.397Z,4.47
2023-05-24T09:22:43.110Z,5.95
2023-05-24T09:25:14.008Z,6.60
2023-05-24T09:27:41.549Z,3.70
2023-05-24T09:30:10.860Z,3.53
2023-05-24T09:32:38.478Z,3.67
2023-05-24T09:35:10.206Z,3.70
2023-05-24T09:37:38.872Z,3.17
2023-05-24T09:40:09.326Z,3.30
2023-05-24T09:42:37.509Z,3.30
2023-05-24T09:45:12.676Z,3.20
2023-05-24T09:47:41.955Z,3.40
2023-05-24T09:50:15.760Z,3.40
2023-05-24T09:52:44.056Z,3.00
2023-05-24T09:55:21.488Z,2.53
2023-05-24T09:58:03.080Z,3.17
2023-05-24T10:00:35.160Z,3.17
2023-05-24T10:03:06.952Z,2.55
2023-05-24T10:05:35.908Z,2.90
2023-05-24T10:08:06.873Z,2.90
2023-05-24T10:10:34.924Z,3.05
2023-05-24T10:13:03.039Z,3.08
2023-05-24T10:15:30.795Z,2.80
2023-05-24T10:18:11.519Z,3.00
2023-05-24T10:20:41.707Z,2.80
2023-05-24T10:23:10.851Z,3.10
2023-05-24T10:25:46.681Z,3.10
2023-05-24T10:28:16.243Z,3.25
2023-05-24T10:30:56.458Z,3.33
2023-05-24T10:33:24.982Z,3.13
2023-05-24T10:35:53.855Z,3.25
2023-05-24T10:38:24.982Z,3.22
2023-05-24T10:40:52.731Z,2.85
2023-05-24T10:43:21.637Z,2.65
2023-05-24T10:45:50.626Z,2.83
2023-05-24T10:48:27.868Z,3.00
2023-05-24T10:50:56.170Z,3.30
2023-05-24T10:53:27.730Z,2.88
2023-05-24T10:56:06.828Z,3.03
2023-05-24T10:58:54.922Z,3.05
2023-05-24T11:01:35.016Z,3.75
2023-05-24T11:04:11.254Z,2.92
2023-05-24T11:07:03.827Z,3.80
2023-05-24T11:09:34.963Z,3.15
2023-05-24T11:12:17.316Z,3.15
2023-05-24T11:14:50.519Z,3.53
2023-05-24T11:17:21.402Z,3.10
2023-05-24T11:19:54.489Z,3.00
2023-05-24T11:22:25.422Z,3.08
2023-05-24T11:24:53.790Z,3.47
2023-05-24T11:27:21.001Z,3.08
2023-05-24T11:29:48.767Z,3.00
2023-05-24T11:32:21.326Z,2.78
2023-05-24T11:34:49.529Z,3.17
2023-05-24T11:37:18.297Z,2.90
2023-05-24T11:39:52.742Z,3.08
2023-05-24T11:42:22.978Z,2.70
2023-05-24T11:44:50.540Z,3.10
2023-05-24T11:47:20.549Z,3.47
2023-05-24T11:49:51.610Z,3.50
2023-05-24T11:52:18.738Z,3.45
2023-05-24T11:54:46.135Z,3.40
2023-05-24T11:57:14.021Z,3.50
2023-05-24T11:59:41.950Z,3.30
2023-05-24T12:02:09.523Z,3.15
2023-05-24T12:04:36.688Z,3.72
2023-05-24T12:07:03.885Z,3.33
2023-05-24T12:09:31.070Z,3.50
2023-05-24T12:11:58.591Z,3.95
2023-05-24T12:14:33.717Z,3.47
2023-05-24T12:17:01.319Z,3.70
2023-05-24T12:19:37.293Z,3.35
2023-05-24T12:22:07.041Z,3.28
2023-05-24T12:24:35.308Z,3.85
2023-05-24T12:27:07.780Z,4.10
2023-05-24T12:29:41.853Z,3.05
2023-05-24T12:32:15.120Z,3.50
2023-05-24T12:34:44.373Z,3.45
2023-05-24T12:37:12.659Z,3.53
2023-05-24T12:39:42.555Z,3.92
2023-05-24T12:42:13.146Z,3.88
2023-05-24T12:44:40.506Z,3.63
2023-05-24T12:47:08.490Z,3.80
2023-05-24T12:49:36.282Z,3.38
2023-05-24T12:52:03.827Z,3.65
2023-05-24T12:54:31.594Z,3.53
2023-05-24T12:57:00.644Z,3.58
2023-05-24T12:59:28.732Z,3.60
2023-05-24T13:01:56.714Z,3.53
2023-05-24T13:04:27.130Z,3.63
2023-05-24T13:06:54.590Z,3.50
2023-05-24T13:09:23.326Z,3.55
2023-05-24T13:11:51.329Z,3.60
2023-05-24T13:14:19.849Z,3.70
2023-05-24T13:16:47.681Z,3.33
2023-05-24T13:19:14.953Z,3.22
2023-05-24T13:21:42.628Z,3.40
2023-05-24T13:24:09.840Z,3.08
2023-05-24T13:26:38.117Z,3.20
2023-05-24T13:31:37.885Z,3.28
2023-05-24T13:34:05.608Z,3.55
2023-05-24T13:36:33.578Z,3.25
2023-05-24T13:41:31.677Z,3.47
2023-05-24T13:43:58.812Z,3.40
2023-05-24T13:46:25.986Z,3.05
2023-05-24T13:48:53.200Z,3.03
2023-05-24T13:51:21.147Z,3.38
2023-05-24T13:53:48.558Z,3.30
2023-05-24T13:56:16.454Z,2.95
2023-05-24T13:58:43.607Z,3.08
2023-05-24T14:01:11.382Z,2.83
2023-05-24T14:03:40.993Z,3.00
2023-05-24T14:06:09.272Z,3.28
2023-05-24T14:08:36.788Z,3.05
2023-05-24T14:11:03.872Z,3.13
2023-05-24T14:16:05.410Z,2.90
2023-05-24T14:18:34.224Z,3.13
2023-05-24T14:21:01.936Z,2.90
2023-05-24T14:23:32.007Z,3.35
2023-05-24T14:26:00.050Z,3.20
2023-05-24T14:28:27.604Z,3.60
2023-05-24T14:30:54.748Z,3.40
2023-05-24T14:33:23.391Z,3.03
2023-05-24T14:35:51.774Z,3.35
2023-05-24T14:38:19.227Z,3.05
2023-05-24T14:40:48.986Z,2.92
2023-05-24T14:43:16.282Z,2.60
2023-05-24T14:45:43.841Z,2.95
2023-05-24T14:48:12.453Z,2.65
2023-05-24T14:50:41.133Z,2.70
2023-05-24T14:53:11.841Z,2.88
2023-05-24T14:55:42.040Z,2.78
2023-05-24T14:58:11.393Z,3.30
2023-05-24T15:00:39.895Z,3.72
2023-05-24T15:03:08.882Z,3.05
2023-05-24T15:05:36.794Z,3.38
2023-05-24T15:08:05.614Z,3.00
2023-05-24T15:10:33.351Z,3.30
2023-05-24T15:13:01.461Z,3.35
2023-05-24T15:15:28.844Z,3.25
2023-05-24T15:17:57.342Z,2.90
2023-05-24T15:22:52.677Z,3.40
2023-05-24T15:25:19.738Z,3.35
2023-05-24T15:27:48.042Z,3.28
2023-05-24T15:30:17.288Z,3.30
2023-05-24T15:32:46.111Z,3.08
2023-05-24T15:35:13.297Z,2.78
2023-05-24T15:37:40.759Z,2.95
2023-05-24T15:40:10.619Z,2.92
2023-05-24T15:42:38.191Z,2.78
2023-05-24T15:45:06.403Z,2.63
2023-05-24T15:47:39.776Z,2.97
2023-05-24T15:52:37.693Z,2.92
2023-05-24T15:55:05.551Z,3.00
2023-05-24T15:57:32.633Z,2.80
2023-05-24T15:59:59.677Z,2.75
2023-05-24T16:02:30.621Z,2.60
2023-05-24T16:04:58.261Z,3.05
2023-05-24T16:07:26.058Z,2.92
2023-05-24T16:09:53.175Z,2.65
2023-05-24T16:12:20.391Z,2.50
2023-05-24T16:14:47.569Z,2.60
2023-05-24T16:17:17.606Z,2.80
2023-05-24T16:19:49.454Z,2.90
2023-05-24T16:22:16.773Z,2.75
2023-05-24T16:24:44.632Z,2.70
2023-05-24T16:27:11.848Z,2.50
2023-05-24T16:29:39.374Z,2.95
2023-05-24T16:32:07.625Z,2.60
2023-05-24T16:34:52.178Z,2.60
2023-05-24T16:37:22.084Z,2.70
2023-05-24T16:39:49.164Z,2.70
2023-05-24T16:42:16.261Z,2.80
2023-05-24T16:44:43.619Z,2.85
2023-05-24T16:47:10.899Z,2.65
2023-05-24T16:49:38.047Z,2.80
2023-05-24T16:52:05.269Z,2.22
2023-05-24T16:54:32.322Z,2.83
2023-05-24T16:56:59.490Z,2.75
2023-05-24T16:59:26.604Z,2.53
2023-05-24T17:01:53.729Z,2.75
2023-05-24T17:04:20.848Z,2.78
2023-05-24T17:06:47.988Z,2.75
2023-05-24T17:09:15.083Z,2.80
2023-05-24T17:11:42.132Z,3.28
2023-05-24T17:14:09.528Z,2.80
2023-05-24T17:16:36.942Z,3.20
2023-05-24T17:19:04.442Z,3.05
2023-05-24T17:21:31.578Z,2.80
2023-05-24T17:23:59.831Z,2.97
2023-05-24T17:26:27.553Z,2.83
2023-05-24T17:28:55.115Z,2.50
2023-05-24T17:31:22.422Z,2.90
2023-05-24T17:33:49.544Z,3.08
2023-05-24T17:36:16.729Z,2.97
2023-05-24T17:38:43.753Z,3.05
2023-05-24T17:41:10.970Z,2.92
2023-05-24T17:43:40.064Z,2.75
2023-05-24T17:46:07.537Z,2.90
2023-05-24T17:48:39.835Z,2.63
2023-05-24T17:51:09.050Z,3.00
2023-05-24T17:53:38.015Z,3.20
2023-05-24T17:56:06.130Z,3.00
2023-05-24T17:58:36.419Z,2.60
2023-05-24T18:01:05.604Z,2.72
2023-05-24T18:03:33.989Z,2.80
2023-05-24T18:06:01.444Z,2.70
2023-05-24T18:08:28.665Z,2.85
2023-05-24T18:10:55.801Z,2.63
2023-05-24T18:13:22.914Z,2.47
2023-05-24T18:15:50.494Z,2.67
2023-05-24T18:18:18.098Z,3.08
2023-05-24T18:20:45.422Z,2.90
2023-05-24T18:23:12.530Z,2.80
2023-05-24T18:25:39.599Z,3.30
2023-05-24T18:28:07.354Z,2.88
2023-05-24T18:30:34.446Z,2.58
2023-05-24T18:33:06.956Z,2.83
2023-05-24T18:35:35.763Z,2.70
2023-05-24T18:38:04.323Z,2.90
2023-05-24T18:40:32.438Z,2.63
2023-05-24T18:42:59.581Z,3.00
2023-05-24T18:45:26.574Z,2.95
2023-05-24T18:47:54.296Z,2.95
2023-05-24T18:50:23.471Z,2.80
2023-05-24T18:52:50.888Z,3.08
2023-05-24T18:55:18.106Z,3.17
2023-05-24T18:57:45.354Z,2.90
2023-05-24T19:00:13.168Z,3.30
2023-05-24T19:02:40.888Z,3.03
2023-05-24T19:05:08.866Z,2.95
2023-05-24T19:07:36.756Z,3.00
2023-05-24T19:10:04.578Z,3.53
2023-05-24T19:12:31.927Z,3.28
2023-05-24T19:14:59.759Z,3.25
2023-05-24T19:17:26.997Z,2.78
2023-05-24T19:19:54.555Z,3.13
2023-05-24T19:22:21.672Z,2.67
2023-05-24T19:24:48.789Z,3.03
2023-05-24T19:27:15.818Z,2.30
2023-05-24T19:29:42.971Z,2.60
2023-05-24T19:32:11.460Z,3.05
2023-05-24T19:34:42.140Z,3.00
2023-05-24T19:37:09.874Z,2.90
2023-05-24T19:39:37.754Z,2.78
2023-05-24T19:42:06.536Z,3.10
2023-05-24T19:44:33.584Z,3.17
2023-05-24T19:47:00.768Z,2.80
2023-05-24T19:49:27.806Z,2.90
2023-05-24T19:51:54.994Z,3.08
2023-05-24T19:54:22.876Z,3.30
2023-05-24T19:56:51.875Z,3.13
2023-05-24T19:59:19.390Z,3.20
2023-05-24T20:01:46.847Z,3.10
2023-05-24T20:04:14.279Z,2.78
2023-05-24T20:06:41.520Z,3.17
2023-05-24T20:09:09.536Z,3.30
2023-05-24T20:11:36.790Z,3.20
2023-05-24T20:14:03.871Z,3.15
2023-05-24T20:16:31.472Z,3.30
2023-05-24T20:18:58.582Z,3.28
2023-05-24T20:21:25.892Z,3.38
2023-05-24T20:23:57.673Z,3.55
2023-05-24T20:26:26.242Z,3.70
2023-05-24T20:28:53.599Z,5.32
2023-05-24T20:31:20.764Z,4.28
2023-05-24T20:33:51.454Z,3.65
2023-05-24T20:36:18.651Z,3.47
2023-05-24T20:38:45.754Z,3.60
2023-05-24T20:41:12.778Z,4.05
2023-05-24T20:43:39.944Z,3.47
2023-05-24T20:46:07.335Z,3.28
2023-05-24T20:48:34.645Z,3.20
2023-05-24T20:51:01.725Z,3.88
2023-05-24T20:53:28.859Z,3.20
2023-05-24T20:55:56.661Z,3.50
2023-05-24T20:58:23.835Z,3.20
2023-05-24T21:03:18.899Z,3.70
2023-05-24T21:05:46.151Z,3.03
2023-05-24T21:08:13.358Z,3.35
2023-05-24T21:10:40.567Z,2.95
2023-05-24T21:13:07.672Z,3.35
2023-05-24T21:15:35.318Z,3.60
2023-05-24T21:18:04.027Z,3.55
2023-05-24T21:20:31.288Z,3.38
2023-05-24T21:22:58.543Z,3.90
2023-05-24T21:25:25.745Z,3.38
2023-05-24T21:27:52.733Z,3.67
2023-05-24T21:30:19.879Z,3.72
2023-05-24T21:32:47.099Z,3.55
2023-05-24T21:35:14.262Z,3.25
2023-05-24T21:37:41.308Z,3.40
2023-05-24T21:40:09.098Z,3.00
2023-05-24T21:42:37.215Z,3.60
2023-05-24T21:45:05.041Z,4.00
2023-05-24T21:47:33.187Z,3.47
2023-05-24T21:50:00.421Z,3.33
2023-05-24T21:52:27.431Z,3.40
2023-05-24T21:54:54.405Z,3.50
2023-05-24T21:57:21.462Z,4.10
2023-05-24T21:59:48.585Z,3.80
2023-05-24T22:02:15.727Z,4.10
2023-05-24T22:04:42.793Z,3.47
2023-05-24T22:07:09.863Z,3.80
2023-05-24T22:09:36.908Z,3.83
2023-05-24T22:12:04.291Z,3.40
2023-05-24T22:14:31.792Z,3.80
2023-05-24T22:16:58.888Z,3.70
2023-05-24T22:19:39.964Z,3.85
2023-05-24T22:22:08.815Z,3.95
2023-05-24T22:24:36.160Z,3.92
2023-05-24T22:27:03.813Z,3.83
2023-05-24T22:29:31.135Z,3.95
2023-05-24T22:31:58.248Z,4.38
2023-05-24T22:34:29.302Z,4.20
2023-05-24T22:36:57.747Z,4.28
2023-05-24T22:39:25.243Z,4.10
2023-05-24T22:41:53.019Z,4.50
2023-05-24T22:44:20.358Z,4.30
2023-05-24T22:46:50.371Z,4.15
2023-05-24T22:49:19.544Z,4.25
2023-05-24T22:51:48.308Z,4.57
2023-05-24T22:54:18.100Z,4.25
2023-05-24T22:56:46.269Z,4.20
2023-05-24T22:59:13.373Z,4.15
2023-05-24T23:01:40.548Z,4.03
2023-05-24T23:04:20.443Z,4.63
2023-05-24T23:06:52.576Z,4.38
2023-05-24T23:09:29.045Z,4.70
2023-05-24T23:14:25.916Z,4.38
2023-05-24T23:16:53.084Z,4.47
2023-05-24T23:19:22.100Z,4.55
2023-05-24T23:21:52.272Z,4.15
2023-05-24T23:24:19.434Z,4.70
2023-05-24T23:26:46.556Z,4.40
2023-05-24T23:29:13.740Z,4.32
2023-05-24T23:31:40.921Z,4.72
2023-05-24T23:34:08.230Z,4.90
2023-05-24T23:36:36.505Z,4.88
2023-05-24T23:39:03.953Z,4.85
2023-05-24T23:41:31.101Z,4.80
2023-05-24T23:43:58.147Z,5.07
2023-05-24T23:46:25.253Z,5.10
2023-05-24T23:48:52.305Z,4.78
2023-05-24T23:51:20.204Z,5.28
2023-05-24T23:53:47.247Z,4.97
2023-05-24T23:56:14.296Z,5.05
2023-05-24T23:58:41.920Z,5.07
